createdAt,value
2018-03-22T00:02:03.949Z,2.57
2018-03-22T00:04:30.659Z,2.00
2018-03-22T00:06:57.368Z,1.27
2018-03-22T00:09:24.107Z,2.33
2018-03-22T00:11:50.847Z,3.10
2018-03-22T00:14:17.553Z,2.30
2018-03-22T00:16:44.300Z,5.53
2018-03-22T00:19:11.006Z,1.40
2018-03-22T00:21:37.710Z,1.33
2018-03-22T00:24:04.446Z,2.70
2018-03-22T00:26:31.170Z,2.07
2018-03-22T00:28:57.873Z,3.23
2018-03-22T00:31:24.606Z,2.23
2018-03-22T00:33:51.317Z,1.77
2018-03-22T00:36:18.025Z,1.17
2018-03-22T00:38:44.765Z,2.23
2018-03-22T00:41:11.474Z,2.07
2018-03-22T00:43:38.173Z,2.70
2018-03-22T00:46:04.901Z,1.67
2018-03-22T00:48:31.621Z,3.07
2018-03-22T00:50:58.328Z,1.67
2018-03-22T00:53:25.049Z,1.87
2018-03-22T00:55:51.745Z,1.17
2018-03-22T00:58:18.449Z,1.30
2018-03-22T01:00:45.183Z,4.27
2018-03-22T01:03:11.889Z,1.00
2018-03-22T01:05:38.596Z,2.33
2018-03-22T01:08:05.333Z,3.83
2018-03-22T01:10:32.030Z,1.63
2018-03-22T01:12:58.747Z,3.43
2018-03-22T01:15:25.480Z,1.20
2018-03-22T01:17:52.232Z,1.53
2018-03-22T01:20:18.935Z,3.60
2018-03-22T01:22:45.661Z,2.77
2018-03-22T01:25:12.373Z,2.53
2018-03-22T01:27:39.083Z,1.93
2018-03-22T01:30:11.739Z,3.80
2018-03-22T01:32:38.440Z,2.57
2018-03-22T01:35:05.203Z,1.50
2018-03-22T01:37:31.945Z,2.17
2018-03-22T01:39:58.826Z,1.40
2018-03-22T01:42:25.526Z,1.20
2018-03-22T01:44:52.253Z,3.57
2018-03-22T01:47:18.950Z,1.37
2018-03-22T01:49:45.654Z,2.47
2018-03-22T01:52:12.395Z,1.43
2018-03-22T01:54:39.097Z,2.27
2018-03-22T01:57:05.799Z,1.77
2018-03-22T01:59:32.523Z,4.07
2018-03-22T02:01:59.232Z,3.10
2018-03-22T02:04:25.945Z,1.37
2018-03-22T02:06:52.672Z,1.57
2018-03-22T02:09:19.374Z,1.30
2018-03-22T02:11:46.092Z,4.53
2018-03-22T02:14:12.820Z,2.70
2018-03-22T02:16:39.541Z,1.30
2018-03-22T02:19:06.252Z,2.03
2018-03-22T02:21:32.981Z,2.73
2018-03-22T02:23:59.678Z,1.10
2018-03-22T02:26:26.393Z,1.27
2018-03-22T02:28:53.130Z,1.23
2018-03-22T02:31:19.838Z,1.40
2018-03-22T02:33:46.548Z,1.63
2018-03-22T02:36:13.282Z,1.83
2018-03-22T02:38:39.993Z,1.43
2018-03-22T02:41:06.734Z,2.27
2018-03-22T02:43:33.453Z,3.00
2018-03-22T02:46:00.176Z,2.47
2018-03-22T02:48:26.894Z,2.50
2018-03-22T02:50:53.656Z,2.93
2018-03-22T02:53:20.353Z,3.80
2018-03-22T02:55:47.354Z,4.30
2018-03-22T02:58:14.082Z,2.87
2018-03-22T03:00:40.778Z,2.03
2018-03-22T03:03:07.498Z,2.27
2018-03-22T03:05:34.222Z,3.33
2018-03-22T03:08:00.959Z,2.90
2018-03-22T03:10:27.709Z,1.60
2018-03-22T03:12:54.441Z,2.03
2018-03-22T03:15:21.170Z,1.80
2018-03-22T03:17:47.865Z,3.17
2018-03-22T03:20:14.561Z,1.50
2018-03-22T03:22:41.290Z,1.10
2018-03-22T03:25:07.998Z,2.73
2018-03-22T03:27:34.697Z,1.73
2018-03-22T03:30:01.436Z,4.93
2018-03-22T03:32:28.145Z,1.77
2018-03-22T03:34:54.869Z,4.40
2018-03-22T03:37:21.594Z,1.97
2018-03-22T03:39:48.301Z,2.87
2018-03-22T03:42:15.003Z,2.27
2018-03-22T03:44:41.745Z,3.10
2018-03-22T03:47:08.453Z,2.00
2018-03-22T03:49:35.167Z,4.17
2018-03-22T03:52:01.902Z,2.53
2018-03-22T03:54:28.608Z,2.67
2018-03-22T03:56:55.322Z,2.83
2018-03-22T03:59:22.040Z,1.57
2018-03-22T04:01:48.741Z,3.50
2018-03-22T04:04:15.441Z,2.93
2018-03-22T04:06:42.176Z,5.90
2018-03-22T04:09:08.877Z,2.50
2018-03-22T04:11:35.570Z,5.53
2018-03-22T04:14:02.312Z,1.67
2018-03-22T04:16:29.009Z,1.83
2018-03-22T04:18:55.718Z,3.43
2018-03-22T04:21:22.453Z,3.10
2018-03-22T04:23:49.164Z,6.10
2018-03-22T04:26:15.863Z,3.20
2018-03-22T04:28:42.589Z,2.77
2018-03-22T04:31:09.302Z,3.33
2018-03-22T04:33:36.020Z,2.27
2018-03-22T04:36:02.766Z,4.20
2018-03-22T04:38:29.469Z,3.27
2018-03-22T04:40:56.175Z,1.60
2018-03-22T04:43:22.911Z,2.87
2018-03-22T04:45:49.608Z,4.07
2018-03-22T04:48:16.309Z,4.83
2018-03-22T04:50:43.089Z,2.43
2018-03-22T04:53:09.785Z,3.80
2018-03-22T04:55:36.483Z,1.43
2018-03-22T04:58:03.258Z,1.97
2018-03-22T05:00:29.963Z,3.63
2018-03-22T05:02:56.664Z,2.87
2018-03-22T05:05:23.434Z,2.43
2018-03-22T05:07:50.141Z,4.50
2018-03-22T05:10:17.126Z,2.60
2018-03-22T05:12:43.969Z,5.50
2018-03-22T05:15:10.665Z,7.57
2018-03-22T05:17:37.656Z,4.00
2018-03-22T05:20:04.405Z,4.97
2018-03-22T05:22:31.115Z,3.00
2018-03-22T05:24:57.875Z,5.93
2018-03-22T05:27:24.581Z,4.93
2018-03-22T05:29:51.281Z,3.60
2018-03-22T05:32:17.985Z,3.07
2018-03-22T05:34:44.746Z,4.33
2018-03-22T05:37:11.511Z,4.17
2018-03-22T05:39:38.221Z,3.77
2018-03-22T05:42:04.953Z,5.77
2018-03-22T05:44:31.653Z,3.13
2018-03-22T05:46:58.532Z,4.00
2018-03-22T05:49:25.309Z,3.97
2018-03-22T05:51:52.010Z,3.83
2018-03-22T05:54:18.834Z,4.57
2018-03-22T05:56:45.588Z,3.80
2018-03-22T05:59:12.293Z,4.07
2018-03-22T06:01:39.003Z,3.70
2018-03-22T06:04:05.740Z,4.03
2018-03-22T06:06:32.450Z,4.43
2018-03-22T06:08:59.153Z,2.40
2018-03-22T06:11:25.897Z,1.73
2018-03-22T06:13:52.600Z,3.63
2018-03-22T06:16:19.305Z,3.63
2018-03-22T06:18:46.053Z,5.87
2018-03-22T06:21:12.761Z,2.07
2018-03-22T06:23:39.462Z,4.80
2018-03-22T06:26:06.195Z,2.97
2018-03-22T06:28:32.898Z,3.87
2018-03-22T06:30:59.605Z,2.27
2018-03-22T06:33:26.334Z,3.27
2018-03-22T06:35:53.037Z,2.60
2018-03-22T06:38:19.734Z,6.37
2018-03-22T06:40:46.469Z,3.00
2018-03-22T06:43:13.171Z,4.10
2018-03-22T06:45:39.874Z,3.33
2018-03-22T06:48:06.614Z,5.37
2018-03-22T06:50:33.324Z,4.07
2018-03-22T06:53:00.077Z,2.73
2018-03-22T06:55:26.781Z,3.80
2018-03-22T06:57:53.497Z,3.43
2018-03-22T07:00:20.203Z,2.57
2018-03-22T07:02:46.929Z,3.17
2018-03-22T07:05:13.625Z,6.53
2018-03-22T07:07:40.333Z,4.93
2018-03-22T07:10:07.113Z,3.47
2018-03-22T07:12:33.814Z,2.70
2018-03-22T07:15:00.526Z,3.47
2018-03-22T07:17:27.499Z,2.67
2018-03-22T07:19:54.207Z,4.03
2018-03-22T07:22:20.909Z,3.63
2018-03-22T07:24:47.637Z,2.70
2018-03-22T07:27:14.340Z,2.50
2018-03-22T07:29:41.052Z,5.57
2018-03-22T07:32:07.797Z,8.50
2018-03-22T07:34:34.545Z,3.37
2018-03-22T07:37:01.247Z,3.40
2018-03-22T07:39:28.013Z,2.27
2018-03-22T07:41:54.709Z,2.20
2018-03-22T07:44:27.173Z,3.87
2018-03-22T07:46:53.896Z,2.30
2018-03-22T07:49:20.598Z,4.40
2018-03-22T07:51:47.305Z,3.30
2018-03-22T07:54:14.042Z,2.97
2018-03-22T07:56:40.780Z,2.17
2018-03-22T07:59:07.492Z,2.40
2018-03-22T08:01:34.238Z,2.27
2018-03-22T08:04:00.986Z,1.83
2018-03-22T08:06:27.693Z,2.20
2018-03-22T08:08:54.458Z,4.20
2018-03-22T08:11:21.156Z,2.80
2018-03-22T08:13:47.858Z,2.20
2018-03-22T08:16:14.629Z,2.00
2018-03-22T08:18:41.339Z,1.97
2018-03-22T08:21:08.046Z,2.23
2018-03-22T08:23:34.776Z,4.70
2018-03-22T08:26:01.485Z,1.67
2018-03-22T08:28:28.210Z,2.40
2018-03-22T08:30:54.944Z,3.57
2018-03-22T08:33:21.649Z,2.97
2018-03-22T08:35:48.353Z,2.30
2018-03-22T08:38:15.085Z,1.80
2018-03-22T08:40:41.805Z,1.60
2018-03-22T08:43:08.515Z,1.40
2018-03-22T08:45:35.257Z,2.33
2018-03-22T08:48:01.959Z,1.40
2018-03-22T08:50:28.667Z,1.93
2018-03-22T08:52:55.403Z,1.93
2018-03-22T08:55:22.117Z,1.83
2018-03-22T08:57:48.820Z,1.40
2018-03-22T09:00:15.619Z,1.40
2018-03-22T09:02:42.301Z,2.43
2018-03-22T09:05:09.005Z,3.40
2018-03-22T09:07:35.730Z,1.47
2018-03-22T09:10:02.434Z,1.40
2018-03-22T09:12:29.136Z,1.57
2018-03-22T09:14:55.869Z,1.27
2018-03-22T09:17:22.575Z,2.17
2018-03-22T09:19:49.273Z,1.40
2018-03-22T09:22:15.999Z,1.13
2018-03-22T09:24:42.698Z,1.53
2018-03-22T09:27:09.393Z,1.40
2018-03-22T09:29:36.123Z,1.17
2018-03-22T09:32:02.817Z,1.50
2018-03-22T09:34:29.525Z,1.40
2018-03-22T09:36:56.274Z,1.43
2018-03-22T09:39:22.968Z,1.60
2018-03-22T09:41:49.672Z,1.57
2018-03-22T09:44:16.411Z,1.47
2018-03-22T09:46:43.107Z,1.30
2018-03-22T09:49:09.829Z,1.13
2018-03-22T09:51:36.585Z,2.80
2018-03-22T09:54:03.309Z,1.93
2018-03-22T09:56:30.018Z,7.70
2018-03-22T09:58:56.789Z,1.50
2018-03-22T10:01:23.499Z,1.00
2018-03-22T10:03:50.209Z,2.60
2018-03-22T10:06:16.941Z,1.30
2018-03-22T10:08:43.641Z,1.37
2018-03-22T10:11:10.343Z,1.10
2018-03-22T10:13:37.280Z,0.93
2018-03-22T10:16:03.980Z,0.93
2018-03-22T10:18:30.677Z,1.17
2018-03-22T10:20:57.433Z,1.13
2018-03-22T10:23:24.141Z,1.10
2018-03-22T10:25:50.838Z,1.80
2018-03-22T10:28:17.578Z,1.10
2018-03-22T10:30:44.285Z,2.63
2018-03-22T10:33:10.993Z,1.17
2018-03-22T10:35:37.722Z,1.13
2018-03-22T10:38:04.428Z,1.03
2018-03-22T10:40:31.126Z,4.57
2018-03-22T10:42:57.901Z,0.93
2018-03-22T10:45:24.605Z,1.07
2018-03-22T10:47:51.308Z,0.97
2018-03-22T10:50:18.033Z,1.00
2018-03-22T10:52:44.762Z,1.00
2018-03-22T10:55:11.469Z,1.57
2018-03-22T10:57:38.400Z,1.00
2018-03-22T11:00:05.102Z,1.33
2018-03-22T11:02:48.617Z,1.00
2018-03-22T11:05:15.328Z,0.90
2018-03-22T11:07:42.033Z,1.57
2018-03-22T11:10:08.798Z,2.57
2018-03-22T11:12:35.505Z,0.80
2018-03-22T11:15:02.217Z,2.10
2018-03-22T11:17:28.953Z,1.73
2018-03-22T11:19:55.658Z,0.90
2018-03-22T11:22:22.591Z,1.13
2018-03-22T11:24:49.309Z,0.97
2018-03-22T11:27:16.018Z,1.07
2018-03-22T11:29:42.750Z,4.53
2018-03-22T11:32:09.506Z,1.10
2018-03-22T11:34:36.213Z,1.50
2018-03-22T11:37:02.925Z,1.43
2018-03-22T11:39:29.649Z,3.40
2018-03-22T11:41:56.345Z,2.60
2018-03-22T11:44:23.246Z,2.83
2018-03-22T11:46:49.984Z,1.03
2018-03-22T11:49:16.687Z,1.40
2018-03-22T11:51:43.386Z,1.80
2018-03-22T11:54:10.136Z,1.30
2018-03-22T11:56:37.785Z,2.80
2018-03-22T11:59:04.543Z,1.57
2018-03-22T12:01:31.554Z,1.20
2018-03-22T12:03:58.272Z,1.30
2018-03-22T12:06:24.970Z,0.90
2018-03-22T12:08:51.705Z,1.53
2018-03-22T12:11:18.413Z,1.70
2018-03-22T12:13:45.116Z,2.77
2018-03-22T12:16:11.843Z,0.90
2018-03-22T12:18:38.537Z,1.40
2018-03-22T12:21:05.247Z,1.00
2018-03-22T12:23:31.982Z,1.70
2018-03-22T12:25:58.681Z,1.30
2018-03-22T12:28:25.390Z,1.43
2018-03-22T12:30:52.270Z,4.13
2018-03-22T12:33:18.958Z,1.00
2018-03-22T12:35:45.667Z,0.93
2018-03-22T12:38:12.416Z,1.10
2018-03-22T12:40:39.156Z,2.10
2018-03-22T12:43:05.862Z,1.00
2018-03-22T12:45:32.586Z,1.40
2018-03-22T12:47:59.282Z,1.30
2018-03-22T12:50:26.045Z,1.70
2018-03-22T12:52:53.657Z,1.20
2018-03-22T12:55:20.353Z,0.90
2018-03-22T12:57:47.068Z,1.00
2018-03-22T13:00:14.041Z,1.00
2018-03-22T13:02:40.755Z,1.40
2018-03-22T13:05:07.457Z,1.27
2018-03-22T13:07:34.185Z,2.10
2018-03-22T13:10:00.889Z,1.10
2018-03-22T13:12:27.604Z,1.10
2018-03-22T13:14:54.335Z,1.80
2018-03-22T13:17:21.151Z,1.10
2018-03-22T13:19:47.944Z,1.37
2018-03-22T13:22:14.706Z,1.03
2018-03-22T13:24:41.405Z,1.43
2018-03-22T13:27:08.100Z,1.33
2018-03-22T13:29:34.907Z,3.67
2018-03-22T13:32:01.601Z,1.30
2018-03-22T13:34:28.297Z,1.23
2018-03-22T13:36:55.128Z,1.90
2018-03-22T13:39:21.821Z,2.30
2018-03-22T13:41:48.515Z,1.67
2018-03-22T13:44:15.249Z,1.20
2018-03-22T13:46:41.941Z,3.13
2018-03-22T13:49:08.653Z,1.60
2018-03-22T13:51:35.387Z,3.00
2018-03-22T13:54:02.090Z,3.33
2018-03-22T13:56:28.785Z,3.37
2018-03-22T13:58:55.513Z,2.70
2018-03-22T14:01:22.220Z,1.60
2018-03-22T14:03:48.913Z,1.67
2018-03-22T14:06:15.690Z,2.47
2018-03-22T14:08:42.390Z,3.07
2018-03-22T14:11:09.157Z,1.37
2018-03-22T14:13:35.895Z,2.67
2018-03-22T14:16:02.618Z,3.37
2018-03-22T14:18:29.315Z,1.33
2018-03-22T14:20:56.046Z,3.97
2018-03-22T14:23:22.748Z,2.07
2018-03-22T14:25:49.442Z,1.23
2018-03-22T14:28:16.186Z,1.60
2018-03-22T14:30:42.892Z,1.33
2018-03-22T14:33:09.601Z,5.10
2018-03-22T14:35:36.330Z,1.30
2018-03-22T14:38:03.029Z,1.33
2018-03-22T14:40:29.734Z,1.10
2018-03-22T14:49:38.933Z,7.83
2018-03-22T14:52:05.633Z,5.10
2018-03-22T14:54:32.329Z,2.07
2018-03-22T14:56:59.061Z,3.23
2018-03-22T14:59:25.763Z,1.30
2018-03-22T15:01:52.465Z,2.53
2018-03-22T15:04:19.223Z,1.43
2018-03-22T15:06:45.936Z,1.27
2018-03-22T15:09:12.666Z,1.93
2018-03-22T15:11:39.417Z,2.27
2018-03-22T15:14:06.117Z,1.83
2018-03-22T15:16:32.819Z,2.93
2018-03-22T15:18:59.553Z,2.10
2018-03-22T15:21:26.253Z,4.67
2018-03-22T15:23:52.953Z,1.20
2018-03-22T15:26:19.719Z,0.97
2018-03-22T15:28:46.451Z,2.10
2018-03-22T15:31:13.161Z,2.50
2018-03-22T15:33:39.888Z,2.03
2018-03-22T15:36:06.593Z,1.50
2018-03-22T15:38:33.301Z,1.57
2018-03-22T15:41:00.025Z,1.40
2018-03-22T15:43:26.729Z,2.47
2018-03-22T15:45:53.432Z,1.57
2018-03-22T15:48:20.203Z,1.17
2018-03-22T15:50:46.901Z,1.87
2018-03-22T15:53:13.609Z,4.00
2018-03-22T15:55:40.348Z,2.70
2018-03-22T15:58:07.058Z,1.27
2018-03-22T16:00:33.996Z,3.07
2018-03-22T16:03:00.824Z,1.53
2018-03-22T16:05:27.535Z,1.20
2018-03-22T16:07:54.237Z,1.60
2018-03-22T16:10:20.996Z,3.33
2018-03-22T16:12:47.700Z,2.67
2018-03-22T16:15:14.417Z,1.50
2018-03-22T16:17:41.152Z,3.10
2018-03-22T16:20:07.854Z,2.00
2018-03-22T16:22:34.565Z,2.57
2018-03-22T16:25:01.306Z,2.63
2018-03-22T16:27:28.034Z,2.77
2018-03-22T16:29:54.737Z,1.57
2018-03-22T16:32:21.494Z,2.37
2018-03-22T16:34:48.213Z,2.10
2018-03-22T16:37:14.941Z,2.00
2018-03-22T16:39:41.661Z,1.47
2018-03-22T16:42:08.404Z,4.43
2018-03-22T16:44:35.141Z,2.30
2018-03-22T16:47:01.933Z,3.00
2018-03-22T16:49:28.653Z,4.97
2018-03-22T16:51:55.358Z,2.10
2018-03-22T16:54:22.101Z,1.80
2018-03-22T16:56:48.813Z,3.50
2018-03-22T16:59:15.537Z,3.77
2018-03-22T17:01:42.277Z,3.33
2018-03-22T17:04:08.986Z,8.33
2018-03-22T17:06:35.700Z,4.03
2018-03-22T17:09:02.454Z,3.73
2018-03-22T17:11:29.205Z,3.43
2018-03-22T17:13:55.903Z,3.07
2018-03-22T17:16:22.638Z,2.67
2018-03-22T17:18:49.344Z,2.70
2018-03-22T17:21:16.192Z,4.93
2018-03-22T17:23:42.966Z,2.93
2018-03-22T17:26:09.673Z,3.00
2018-03-22T17:28:36.401Z,6.23
2018-03-22T17:31:03.140Z,2.07
2018-03-22T17:33:29.846Z,9.73
2018-03-22T17:35:56.541Z,3.67
2018-03-22T17:38:23.277Z,2.50
2018-03-22T17:40:49.987Z,4.97
2018-03-22T17:43:16.694Z,3.80
2018-03-22T17:45:43.433Z,7.10
2018-03-22T17:48:10.141Z,6.07
2018-03-22T17:50:36.846Z,4.27
2018-03-22T17:53:03.595Z,3.83
2018-03-22T17:55:30.297Z,3.13
2018-03-22T17:57:56.997Z,6.70
2018-03-22T18:00:23.929Z,20.07
2018-03-22T18:02:50.637Z,12.60
2018-03-22T18:05:17.338Z,13.60
2018-03-22T18:07:44.097Z,9.63
2018-03-22T18:10:10.810Z,9.80
2018-03-22T18:12:37.628Z,17.23
2018-03-22T18:15:04.357Z,11.97
2018-03-22T18:17:31.067Z,11.63
2018-03-22T18:19:57.852Z,8.53
2018-03-22T18:22:24.575Z,9.33
2018-03-22T18:24:51.285Z,11.53
2018-03-22T18:27:18.001Z,6.53
2018-03-22T18:29:44.726Z,8.47
2018-03-22T18:32:11.426Z,7.37
2018-03-22T18:34:38.139Z,9.47
2018-03-22T18:37:04.870Z,5.07
2018-03-22T18:39:31.569Z,5.27
2018-03-22T18:41:58.358Z,11.57
2018-03-22T18:44:25.093Z,6.77
2018-03-22T18:46:51.814Z,6.20
2018-03-22T18:49:18.521Z,8.07
2018-03-22T18:51:45.249Z,9.40
2018-03-22T18:54:11.970Z,8.77
2018-03-22T18:56:38.680Z,4.50
2018-03-22T18:59:05.413Z,5.37
2018-03-22T19:01:32.119Z,9.27
2018-03-22T19:03:58.823Z,8.50
2018-03-22T19:06:25.548Z,5.27
2018-03-22T19:08:52.257Z,8.30
2018-03-22T19:11:18.958Z,5.53
2018-03-22T19:13:45.722Z,8.23
2018-03-22T19:16:12.439Z,28.00
2018-03-22T19:18:39.141Z,10.23
2018-03-22T19:21:05.873Z,5.77
2018-03-22T19:23:32.589Z,14.93
2018-03-22T19:25:59.319Z,12.37
2018-03-22T19:28:26.108Z,16.67
2018-03-22T19:30:52.811Z,13.47
2018-03-22T19:33:19.513Z,8.57
2018-03-22T19:35:46.253Z,12.13
2018-03-22T19:38:12.964Z,11.87
2018-03-22T19:40:39.663Z,8.93
2018-03-22T19:43:06.395Z,9.37
2018-03-22T19:45:33.098Z,7.10
2018-03-22T19:47:59.801Z,13.87
2018-03-22T19:50:26.533Z,15.40
2018-03-22T19:52:53.244Z,13.10
2018-03-22T19:55:19.941Z,12.70
2018-03-22T19:57:46.685Z,10.53
2018-03-22T20:00:13.398Z,12.13
2018-03-22T20:02:40.107Z,9.30
2018-03-22T20:05:06.854Z,8.83
2018-03-22T20:07:33.564Z,8.33
2018-03-22T20:10:00.276Z,9.13
2018-03-22T20:12:27.025Z,13.30
2018-03-22T20:14:53.721Z,9.20
2018-03-22T20:17:20.433Z,11.53
2018-03-22T20:19:47.177Z,9.10
2018-03-22T20:22:13.877Z,13.53
2018-03-22T20:24:40.584Z,10.67
2018-03-22T20:27:07.318Z,11.70
2018-03-22T20:29:34.039Z,12.47
2018-03-22T20:32:00.745Z,10.93
2018-03-22T20:34:27.495Z,11.50
2018-03-22T20:36:54.433Z,10.77
2018-03-22T20:39:21.140Z,9.10
2018-03-22T20:41:47.913Z,11.77
2018-03-22T20:44:14.645Z,9.77
2018-03-22T20:46:41.340Z,7.87
2018-03-22T20:49:08.081Z,9.17
2018-03-22T20:51:34.784Z,4.27
2018-03-22T20:54:01.489Z,10.77
2018-03-22T20:56:28.253Z,10.53
2018-03-22T20:58:54.958Z,9.83
2018-03-22T21:01:21.878Z,13.50
2018-03-22T21:03:48.665Z,10.07
2018-03-22T21:06:15.377Z,10.67
2018-03-22T21:08:42.068Z,5.47
2018-03-22T21:11:08.797Z,6.83
2018-03-22T21:13:35.490Z,9.20
2018-03-22T21:16:02.205Z,7.07
2018-03-22T21:18:28.941Z,6.20
2018-03-22T21:20:55.645Z,7.00
2018-03-22T21:23:22.347Z,3.97
2018-03-22T21:25:49.093Z,4.50
2018-03-22T21:28:15.794Z,4.33
2018-03-22T21:30:42.506Z,5.43
2018-03-22T21:33:09.237Z,8.10
2018-03-22T21:35:35.936Z,4.23
2018-03-22T21:38:02.652Z,3.83
2018-03-22T21:40:29.754Z,5.83
2018-03-22T21:42:56.457Z,3.83
2018-03-22T21:45:23.171Z,5.67
2018-03-22T21:47:49.905Z,5.63
2018-03-22T21:50:16.622Z,4.20
2018-03-22T21:52:45.058Z,4.77
2018-03-22T21:55:11.794Z,7.73
2018-03-22T21:57:38.500Z,5.80
2018-03-22T22:00:05.217Z,8.33
2018-03-22T22:02:31.944Z,5.33
2018-03-22T22:04:58.681Z,7.33
2018-03-22T22:07:25.389Z,6.27
2018-03-22T22:09:52.114Z,6.83
2018-03-22T22:12:18.814Z,4.77
2018-03-22T22:14:45.525Z,4.00
2018-03-22T22:17:12.252Z,3.53
2018-03-22T22:19:38.953Z,5.50
2018-03-22T22:22:05.654Z,4.67
2018-03-22T22:24:32.412Z,5.10
2018-03-22T22:26:59.133Z,8.73
2018-03-22T22:29:25.845Z,4.27
2018-03-22T22:31:52.585Z,6.77
2018-03-22T22:34:19.288Z,6.63
2018-03-22T22:36:45.985Z,6.73
2018-03-22T22:39:12.718Z,9.77
2018-03-22T22:41:39.426Z,4.17
2018-03-22T22:44:06.134Z,5.70
2018-03-22T22:46:32.911Z,5.60
2018-03-22T22:48:59.621Z,7.60
2018-03-22T22:51:26.329Z,4.07
2018-03-22T22:53:53.065Z,8.17
2018-03-22T22:56:19.773Z,11.37
2018-03-22T22:58:46.476Z,7.77
2018-03-22T23:01:13.354Z,6.93
2018-03-22T23:03:40.061Z,5.33
2018-03-22T23:06:06.757Z,7.57
2018-03-22T23:08:33.501Z,5.50
2018-03-22T23:11:00.209Z,6.13
2018-03-22T23:13:26.910Z,8.00
2018-03-22T23:15:53.806Z,3.30
2018-03-22T23:18:20.520Z,2.90
2018-03-22T23:20:47.221Z,5.83
2018-03-22T23:23:13.953Z,4.37
2018-03-22T23:25:40.656Z,2.93
2018-03-22T23:28:07.358Z,3.10
2018-03-22T23:30:34.084Z,4.80
2018-03-22T23:33:00.795Z,4.77
2018-03-22T23:35:27.507Z,6.97
2018-03-22T23:37:54.233Z,4.70
2018-03-22T23:40:20.933Z,4.63
2018-03-22T23:42:47.641Z,6.77
2018-03-22T23:45:14.385Z,4.80
2018-03-22T23:47:41.090Z,4.33
2018-03-22T23:50:07.790Z,4.43
2018-03-22T23:52:34.533Z,5.10
2018-03-22T23:55:01.241Z,3.40
2018-03-22T23:57:27.961Z,9.43
2018-03-22T23:59:54.696Z,4.60
